sensor_id;sensor_type;location;lat;lon;timestamp;pressure;altitude;pressure_sealevel;temperature;humidity
27840;BME280;15207;42.182;24.308;2023-08-24T00:00:39;99174.66;;;24.16;67.73
27840;BME280;15207;42.182;24.308;2023-08-24T00:03:05;99185.81;;;23.94;69.10
27840;BME280;15207;42.182;24.308;2023-08-24T00:05:37;99186.03;;;23.86;70.41
27840;BME280;15207;42.182;24.308;2023-08-24T00:08:06;99180.78;;;23.77;69.68
27840;BME280;15207;42.182;24.308;2023-08-24T00:10:33;99180.34;;;23.81;67.80
27840;BME280;15207;42.182;24.308;2023-08-24T00:12:58;99183.72;;;23.56;71.32
27840;BME280;15207;42.182;24.308;2023-08-24T00:15:24;99189.53;;;23.25;73.33
27840;BME280;15207;42.182;24.308;2023-08-24T00:17:49;99184.06;;;23.19;74.45
27840;BME280;15207;42.182;24.308;2023-08-24T00:20:15;99189.97;;;23.22;74.60
27840;BME280;15207;42.182;24.308;2023-08-24T00:22:41;99176.53;;;23.28;73.97
27840;BME280;15207;42.182;24.308;2023-08-24T00:25:06;99175.75;;;23.41;72.71
27840;BME280;15207;42.182;24.308;2023-08-24T00:27:32;99179.72;;;23.51;71.75
27840;BME280;15207;42.182;24.308;2023-08-24T00:29:57;99184.13;;;23.59;71.56
27840;BME280;15207;42.182;24.308;2023-08-24T00:32:23;99188.59;;;23.67;71.62
27840;BME280;15207;42.182;24.308;2023-08-24T00:34:48;99182.88;;;23.69;72.91
27840;BME280;15207;42.182;24.308;2023-08-24T00:37:14;99186.66;;;23.68;71.93
27840;BME280;15207;42.182;24.308;2023-08-24T00:39:40;99172.19;;;23.67;70.89
27840;BME280;15207;42.182;24.308;2023-08-24T00:42:06;99175.31;;;23.64;71.12
27840;BME280;15207;42.182;24.308;2023-08-24T00:44:31;99166.50;;;23.48;72.27
27840;BME280;15207;42.182;24.308;2023-08-24T00:46:58;99169.22;;;23.48;72.29
27840;BME280;15207;42.182;24.308;2023-08-24T00:49:25;99156.22;;;23.37;71.23
27840;BME280;15207;42.182;24.308;2023-08-24T00:51:51;99170.47;;;23.32;72.90
27840;BME280;15207;42.182;24.308;2023-08-24T00:54:16;99176.09;;;23.24;73.18
27840;BME280;15207;42.182;24.308;2023-08-24T00:56:43;99177.16;;;23.30;73.11
27840;BME280;15207;42.182;24.308;2023-08-24T00:59:09;99170.22;;;23.27;72.70
27840;BME280;15207;42.182;24.308;2023-08-24T01:01:34;99172.31;;;23.32;72.02
27840;BME280;15207;42.182;24.308;2023-08-24T01:04:00;99175.75;;;23.41;71.43
27840;BME280;15207;42.182;24.308;2023-08-24T01:06:25;99166.09;;;23.45;71.53
27840;BME280;15207;42.182;24.308;2023-08-24T01:08:51;99166.50;;;23.48;70.53
27840;BME280;15207;42.182;24.308;2023-08-24T01:16:46;99182.03;;;23.48;70.72
27840;BME280;15207;42.182;24.308;2023-08-24T01:19:41;99180.38;;;23.47;70.63
27840;BME280;15207;42.182;24.308;2023-08-24T01:24:57;99173.22;;;23.39;70.66
27840;BME280;15207;42.182;24.308;2023-08-24T01:27:26;99165.38;;;23.29;71.23
27840;BME280;15207;42.182;24.308;2023-08-24T01:29:53;99164.75;;;23.20;72.05
27840;BME280;15207;42.182;24.308;2023-08-24T01:32:22;99153.00;;;23.13;72.03
27840;BME280;15207;42.182;24.308;2023-08-24T01:34:48;99157.81;;;23.11;72.38
27840;BME280;15207;42.182;24.308;2023-08-24T01:37:13;99152.34;;;23.11;72.61
27840;BME280;15207;42.182;24.308;2023-08-24T01:42:06;99149.59;;;23.04;70.66
27840;BME280;15207;42.182;24.308;2023-08-24T01:44:37;99159.72;;;23.10;69.45
27840;BME280;15207;42.182;24.308;2023-08-24T01:47:05;99149.59;;;22.97;70.53
27840;BME280;15207;42.182;24.308;2023-08-24T01:49:33;99147.88;;;22.83;70.49
27840;BME280;15207;42.182;24.308;2023-08-24T01:51:59;99152.84;;;22.59;72.18
27840;BME280;15207;42.182;24.308;2023-08-24T01:54:26;99154.50;;;22.60;72.67
27840;BME280;15207;42.182;24.308;2023-08-24T01:56:51;99155.06;;;22.49;73.24
27840;BME280;15207;42.182;24.308;2023-08-24T01:59:17;99155.94;;;22.49;74.18
27840;BME280;15207;42.182;24.308;2023-08-24T02:01:42;99157.16;;;22.40;73.12
27840;BME280;15207;42.182;24.308;2023-08-24T02:04:07;99160.41;;;22.22;73.13
27840;BME280;15207;42.182;24.308;2023-08-24T02:06:33;99149.69;;;22.20;73.69
27840;BME280;15207;42.182;24.308;2023-08-24T02:08:58;99154.56;;;22.31;72.62
27840;BME280;15207;42.182;24.308;2023-08-24T02:11:25;99158.78;;;22.34;72.59
27840;BME280;15207;42.182;24.308;2023-08-24T02:13:53;99146.84;;;22.42;72.01
27840;BME280;15207;42.182;24.308;2023-08-24T02:16:18;99153.19;;;22.49;71.50
27840;BME280;15207;42.182;24.308;2023-08-24T02:18:44;99155.28;;;22.47;71.76
27840;BME280;15207;42.182;24.308;2023-08-24T02:21:10;99155.94;;;22.49;71.78
27840;BME280;15207;42.182;24.308;2023-08-24T02:23:38;99159.47;;;22.50;71.72
27840;BME280;15207;42.182;24.308;2023-08-24T02:26:03;99155.94;;;22.49;71.73
27840;BME280;15207;42.182;24.308;2023-08-24T02:28:29;99161.13;;;22.44;71.81
27840;BME280;15207;42.182;24.308;2023-08-24T02:30:59;99157.94;;;22.27;72.11
27840;BME280;15207;42.182;24.308;2023-08-24T02:33:25;99166.88;;;22.20;72.50
27840;BME280;15207;42.182;24.308;2023-08-24T02:35:50;99160.59;;;22.20;73.31
27840;BME280;15207;42.182;24.308;2023-08-24T02:38:16;99163.53;;;22.18;74.32
27840;BME280;15207;42.182;24.308;2023-08-24T02:40:41;99173.75;;;22.10;75.61
27840;BME280;15207;42.182;24.308;2023-08-24T02:43:07;99171.63;;;22.05;76.59
27840;BME280;15207;42.182;24.308;2023-08-24T02:45:33;99171.63;;;22.05;76.99
27840;BME280;15207;42.182;24.308;2023-08-24T02:47:58;99161.75;;;22.04;76.50
27840;BME280;15207;42.182;24.308;2023-08-24T02:50:23;99168.03;;;21.98;76.83
27840;BME280;15207;42.182;24.308;2023-08-24T02:52:49;99166.50;;;21.88;77.41
27840;BME280;15207;42.182;24.308;2023-08-24T02:55:16;99170.22;;;21.80;77.69
27840;BME280;15207;42.182;24.308;2023-08-24T02:57:42;99171.00;;;21.74;77.75
27840;BME280;15207;42.182;24.308;2023-08-24T03:00:08;99173.94;;;21.73;77.54
27840;BME280;15207;42.182;24.308;2023-08-24T03:02:35;99172.88;;;21.74;77.03
27840;BME280;15207;42.182;24.308;2023-08-24T03:05:02;99171.88;;;21.82;76.42
27840;BME280;15207;42.182;24.308;2023-08-24T03:07:28;99171.09;;;21.88;75.12
27840;BME280;15207;42.182;24.308;2023-08-24T03:09:53;99176.34;;;21.89;74.26
27840;BME280;15207;42.182;24.308;2023-08-24T03:12:19;99183.28;;;21.92;74.08
27840;BME280;15207;42.182;24.308;2023-08-24T03:14:44;99172.56;;;21.90;73.73
27840;BME280;15207;42.182;24.308;2023-08-24T03:17:10;99179.06;;;21.89;73.39
27840;BME280;15207;42.182;24.308;2023-08-24T03:19:35;99183.41;;;21.84;73.27
27840;BME280;15207;42.182;24.308;2023-08-24T03:22:01;99177.97;;;21.84;73.43
27840;BME280;15207;42.182;24.308;2023-08-24T03:24:27;99180.25;;;21.80;73.66
27840;BME280;15207;42.182;24.308;2023-08-24T03:26:52;99183.84;;;21.80;73.66
27840;BME280;15207;42.182;24.308;2023-08-24T03:29:18;99174.38;;;21.76;74.17
27840;BME280;15207;42.182;24.308;2023-08-24T03:31:43;99177.53;;;21.80;73.18
27840;BME280;15207;42.182;24.308;2023-08-24T03:34:09;99180.50;;;21.85;72.49
27840;BME280;15207;42.182;24.308;2023-08-24T03:36:34;99175.09;;;21.92;72.10
27840;BME280;15207;42.182;24.308;2023-08-24T03:39:00;99178.38;;;21.80;73.23
27840;BME280;15207;42.182;24.308;2023-08-24T03:41:25;99182.09;;;21.73;73.42
27840;BME280;15207;42.182;24.308;2023-08-24T03:43:51;99180.25;;;21.80;73.85
27840;BME280;15207;42.182;24.308;2023-08-24T03:46:16;99176.91;;;21.78;73.20
27840;BME280;15207;42.182;24.308;2023-08-24T03:48:42;99178.63;;;21.86;73.19
27840;BME280;15207;42.182;24.308;2023-08-24T03:51:07;99180.31;;;21.87;74.03
27840;BME280;15207;42.182;24.308;2023-08-24T03:53:32;99188.09;;;21.90;72.93
27840;BME280;15207;42.182;24.308;2023-08-24T03:55:58;99199.44;;;21.93;72.60
27840;BME280;15207;42.182;24.308;2023-08-24T03:58:23;99191.59;;;21.84;73.81
27840;BME280;15207;42.182;24.308;2023-08-24T04:00:49;99196.66;;;21.87;73.86
27840;BME280;15207;42.182;24.308;2023-08-24T04:03:15;99193.56;;;21.90;74.33
27840;BME280;15207;42.182;24.308;2023-08-24T04:05:42;99194.03;;;22.00;73.70
27840;BME280;15207;42.182;24.308;2023-08-24T04:08:07;99196.81;;;22.07;73.16
27840;BME280;15207;42.182;24.308;2023-08-24T04:10:33;99190.66;;;21.98;72.74
27840;BME280;15207;42.182;24.308;2023-08-24T04:12:58;99197.25;;;22.11;72.66
27840;BME280;15207;42.182;24.308;2023-08-24T04:15:24;99196.44;;;22.17;72.51
27840;BME280;15207;42.182;24.308;2023-08-24T04:17:50;99197.34;;;22.24;71.13
27840;BME280;15207;42.182;24.308;2023-08-24T04:20:16;99202.03;;;22.37;70.52
27840;BME280;15207;42.182;24.308;2023-08-24T04:22:42;99201.66;;;22.47;70.02
27840;BME280;15207;42.182;24.308;2023-08-24T04:25:08;99206.78;;;22.57;71.18
27840;BME280;15207;42.182;24.308;2023-08-24T04:27:34;99204.06;;;22.64;71.20
27840;BME280;15207;42.182;24.308;2023-08-24T04:29:59;99212.06;;;22.72;71.55
27840;BME280;15207;42.182;24.308;2023-08-24T04:32:26;99211.03;;;22.73;71.65
27840;BME280;15207;42.182;24.308;2023-08-24T04:34:52;99209.16;;;22.74;71.63
27840;BME280;15207;42.182;24.308;2023-08-24T04:37:18;99207.50;;;22.86;70.39
27840;BME280;15207;42.182;24.308;2023-08-24T04:39:43;99202.28;;;22.98;69.92
27840;BME280;15207;42.182;24.308;2023-08-24T04:42:08;99203.38;;;23.04;68.57
27840;BME280;15207;42.182;24.308;2023-08-24T04:44:34;99195.59;;;23.01;67.74
27840;BME280;15207;42.182;24.308;2023-08-24T04:46:59;99210.13;;;23.15;66.83
27840;BME280;15207;42.182;24.308;2023-08-24T04:49:25;99203.63;;;23.16;65.06
27840;BME280;15207;42.182;24.308;2023-08-24T04:51:50;99209.50;;;23.26;66.27
27840;BME280;15207;42.182;24.308;2023-08-24T04:54:16;99208.09;;;23.37;66.35
27840;BME280;15207;42.182;24.308;2023-08-24T04:56:41;99210.81;;;23.44;65.63
27840;BME280;15207;42.182;24.308;2023-08-24T04:59:06;99208.31;;;23.42;64.22
27840;BME280;15207;42.182;24.308;2023-08-24T05:01:33;99211.69;;;23.51;65.50
27840;BME280;15207;42.182;24.308;2023-08-24T05:03:59;99211.88;;;23.49;66.05
27840;BME280;15207;42.182;24.308;2023-08-24T05:06:25;99212.53;;;23.58;65.86
27840;BME280;15207;42.182;24.308;2023-08-24T05:08:50;99198.25;;;23.63;66.34
27840;BME280;15207;42.182;24.308;2023-08-24T05:11:24;99206.84;;;23.67;67.12
27840;BME280;15207;42.182;24.308;2023-08-24T05:13:51;99206.44;;;23.63;66.42
27840;BME280;15207;42.182;24.308;2023-08-24T05:16:16;99205.38;;;23.71;66.88
27840;BME280;15207;42.182;24.308;2023-08-24T05:18:42;99207.06;;;23.72;66.55
27840;BME280;15207;42.182;24.308;2023-08-24T05:21:07;99206.00;;;23.73;66.19
27840;BME280;15207;42.182;24.308;2023-08-24T05:23:33;99219.47;;;23.81;66.20
27840;BME280;15207;42.182;24.308;2023-08-24T05:26:00;99218.81;;;23.86;65.81
27840;BME280;15207;42.182;24.308;2023-08-24T05:28:28;99219.88;;;23.91;65.76
27840;BME280;15207;42.182;24.308;2023-08-24T05:30:54;99220.72;;;23.92;66.50
27840;BME280;15207;42.182;24.308;2023-08-24T05:33:21;99229.56;;;23.94;66.40
27840;BME280;15207;42.182;24.308;2023-08-24T05:35:47;99212.75;;;23.90;66.30
27840;BME280;15207;42.182;24.308;2023-08-24T05:38:12;99219.28;;;24.10;64.75
27840;BME280;15207;42.182;24.308;2023-08-24T05:40:38;99221.56;;;24.20;64.33
27840;BME280;15207;42.182;24.308;2023-08-24T05:43:04;99213.72;;;24.37;63.67
27840;BME280;15207;42.182;24.308;2023-08-24T05:45:29;99219.63;;;24.40;63.03
27840;BME280;15207;42.182;24.308;2023-08-24T05:47:55;99220.03;;;24.44;63.18
27840;BME280;15207;42.182;24.308;2023-08-24T05:50:21;99217.28;;;24.58;64.15
27840;BME280;15207;42.182;24.308;2023-08-24T05:52:46;99206.91;;;24.66;62.25
27840;BME280;15207;42.182;24.308;2023-08-24T05:55:12;99208.75;;;24.79;61.36
27840;BME280;15207;42.182;24.308;2023-08-24T05:57:37;99211.47;;;24.93;61.34
27840;BME280;15207;42.182;24.308;2023-08-24T06:00:03;99211.13;;;25.15;60.02
27840;BME280;15207;42.182;24.308;2023-08-24T06:02:31;99215.09;;;25.26;57.31
27840;BME280;15207;42.182;24.308;2023-08-24T06:04:57;99217.63;;;25.53;57.50
27840;BME280;15207;42.182;24.308;2023-08-24T06:07:22;99213.94;;;25.72;56.02
27840;BME280;15207;42.182;24.308;2023-08-24T06:09:48;99212.00;;;25.98;55.45
27840;BME280;15207;42.182;24.308;2023-08-24T06:12:13;99203.31;;;26.27;55.34
27840;BME280;15207;42.182;24.308;2023-08-24T06:14:38;99201.03;;;26.61;54.21
27840;BME280;15207;42.182;24.308;2023-08-24T06:17:04;99190.53;;;26.89;52.94
27840;BME280;15207;42.182;24.308;2023-08-24T06:19:30;99199.56;;;26.96;53.05
27840;BME280;15207;42.182;24.308;2023-08-24T06:21:55;99196.03;;;27.08;52.70
27840;BME280;15207;42.182;24.308;2023-08-24T06:24:21;99200.72;;;27.19;51.41
27840;BME280;15207;42.182;24.308;2023-08-24T06:26:46;99202.44;;;27.32;51.90
27840;BME280;15207;42.182;24.308;2023-08-24T06:29:11;99203.31;;;27.44;51.25
27840;BME280;15207;42.182;24.308;2023-08-24T06:31:37;99201.28;;;27.52;51.92
27840;BME280;15207;42.182;24.308;2023-08-24T06:34:02;99200.72;;;27.73;51.08
27840;BME280;15207;42.182;24.308;2023-08-24T06:36:28;99203.25;;;27.87;49.41
27840;BME280;15207;42.182;24.308;2023-08-24T06:38:54;99203.50;;;27.97;48.99
27840;BME280;15207;42.182;24.308;2023-08-24T06:41:20;99198.97;;;28.03;47.67
27840;BME280;15207;42.182;24.308;2023-08-24T06:43:45;99204.13;;;28.11;49.35
27840;BME280;15207;42.182;24.308;2023-08-24T06:46:11;99206.25;;;28.45;47.68
27840;BME280;15207;42.182;24.308;2023-08-24T06:48:36;99211.38;;;28.54;45.73
27840;BME280;15207;42.182;24.308;2023-08-24T06:51:07;99216.94;;;28.95;47.13
27840;BME280;15207;42.182;24.308;2023-08-24T06:53:32;99222.09;;;29.20;47.70
27840;BME280;15207;42.182;24.308;2023-08-24T06:55:58;99220.16;;;29.50;46.70
27840;BME280;15207;42.182;24.308;2023-08-24T06:58:24;99229.72;;;29.59;45.41
27840;BME280;15207;42.182;24.308;2023-08-24T07:00:49;99223.13;;;29.48;45.58
27840;BME280;15207;42.182;24.308;2023-08-24T07:03:18;99231.53;;;29.53;45.29
27840;BME280;15207;42.182;24.308;2023-08-24T07:05:45;99221.69;;;29.28;45.55
27840;BME280;15207;42.182;24.308;2023-08-24T07:08:11;99220.81;;;29.40;44.86
27840;BME280;15207;42.182;24.308;2023-08-24T07:10:36;99221.84;;;29.51;45.37
27840;BME280;15207;42.182;24.308;2023-08-24T07:13:02;99224.19;;;29.76;44.24
27840;BME280;15207;42.182;24.308;2023-08-24T07:15:27;99217.66;;;29.65;44.25
27840;BME280;15207;42.182;24.308;2023-08-24T07:17:53;99214.25;;;29.75;43.40
27840;BME280;15207;42.182;24.308;2023-08-24T07:20:18;99218.84;;;29.52;43.17
27840;BME280;15207;42.182;24.308;2023-08-24T07:22:45;99210.19;;;29.49;43.14
27840;BME280;15207;42.182;24.308;2023-08-24T07:25:10;99210.72;;;29.63;42.00
27840;BME280;15207;42.182;24.308;2023-08-24T07:27:37;99201.13;;;29.65;43.33
27840;BME280;15207;42.182;24.308;2023-08-24T07:30:03;99205.59;;;29.37;44.47
27840;BME280;15207;42.182;24.308;2023-08-24T07:32:32;99210.94;;;29.44;44.50
27840;BME280;15207;42.182;24.308;2023-08-24T07:34:58;99211.13;;;29.37;44.49
27840;BME280;15207;42.182;24.308;2023-08-24T07:37:27;99212.88;;;29.14;44.19
27840;BME280;15207;42.182;24.308;2023-08-24T07:39:53;99219.69;;;28.95;44.36
27840;BME280;15207;42.182;24.308;2023-08-24T07:42:21;99217.69;;;28.90;44.73
27840;BME280;15207;42.182;24.308;2023-08-24T07:44:47;99225.09;;;28.77;45.28
27840;BME280;15207;42.182;24.308;2023-08-24T07:47:13;99232.44;;;28.60;45.19
27840;BME280;15207;42.182;24.308;2023-08-24T07:49:39;99241.31;;;28.38;45.51
27840;BME280;15207;42.182;24.308;2023-08-24T07:52:10;99251.53;;;28.25;45.96
27840;BME280;15207;42.182;24.308;2023-08-24T07:54:36;99255.44;;;28.06;46.99
27840;BME280;15207;42.182;24.308;2023-08-24T07:57:01;99259.72;;;27.90;48.21
27840;BME280;15207;42.182;24.308;2023-08-24T07:59:27;99272.38;;;27.79;48.40
27840;BME280;15207;42.182;24.308;2023-08-24T08:01:52;99263.06;;;27.80;48.55
27840;BME280;15207;42.182;24.308;2023-08-24T08:04:18;99266.13;;;27.59;48.93
27840;BME280;15207;42.182;24.308;2023-08-24T08:06:43;99259.19;;;27.38;49.40
27840;BME280;15207;42.182;24.308;2023-08-24T08:09:09;99258.41;;;27.50;48.98
27840;BME280;15207;42.182;24.308;2023-08-24T08:11:34;99258.00;;;27.65;48.78
27840;BME280;15207;42.182;24.308;2023-08-24T08:14:00;99256.00;;;27.72;48.47
27840;BME280;15207;42.182;24.308;2023-08-24T08:16:25;99261.25;;;27.85;48.85
27840;BME280;15207;42.182;24.308;2023-08-24T08:18:51;99250.25;;;27.62;50.97
27840;BME280;15207;42.182;24.308;2023-08-24T08:21:17;99263.50;;;27.34;52.21
27840;BME280;15207;42.182;24.308;2023-08-24T08:23:44;99248.72;;;27.16;53.55
27840;BME280;15207;42.182;24.308;2023-08-24T08:26:12;99256.75;;;27.18;54.84
27840;BME280;15207;42.182;24.308;2023-08-24T08:28:41;99254.44;;;27.15;54.66
27840;BME280;15207;42.182;24.308;2023-08-24T08:31:06;99248.28;;;27.19;55.22
27840;BME280;15207;42.182;24.308;2023-08-24T08:33:32;99251.84;;;27.20;56.14
27840;BME280;15207;42.182;24.308;2023-08-24T08:35:58;99249.09;;;27.20;56.95
27840;BME280;15207;42.182;24.308;2023-08-24T08:38:24;99254.81;;;27.18;59.23
27840;BME280;15207;42.182;24.308;2023-08-24T08:40:56;99249.38;;;27.00;62.13
27840;BME280;15207;42.182;24.308;2023-08-24T08:43:24;99250.75;;;27.09;66.63
27840;BME280;15207;42.182;24.308;2023-08-24T08:45:52;99240.34;;;26.92;66.40
27840;BME280;15207;42.182;24.308;2023-08-24T08:48:21;99234.81;;;26.99;66.46
27840;BME280;15207;42.182;24.308;2023-08-24T08:50:51;99223.03;;;26.92;65.55
27840;BME280;15207;42.182;24.308;2023-08-24T08:53:20;99226.78;;;26.98;68.08
27840;BME280;15207;42.182;24.308;2023-08-24T08:55:45;99221.56;;;27.08;66.89
27840;BME280;15207;42.182;24.308;2023-08-24T08:58:11;99213.47;;;27.13;68.78
27840;BME280;15207;42.182;24.308;2023-08-24T09:00:37;99219.00;;;27.25;67.09
27840;BME280;15207;42.182;24.308;2023-08-24T09:03:04;99212.47;;;27.38;64.58
27840;BME280;15207;42.182;24.308;2023-08-24T09:05:31;99204.66;;;27.54;58.44
27840;BME280;15207;42.182;24.308;2023-08-24T09:07:57;99205.97;;;27.63;60.46
27840;BME280;15207;42.182;24.308;2023-08-24T09:10:25;99203.34;;;27.68;65.55
27840;BME280;15207;42.182;24.308;2023-08-24T09:12:50;99200.47;;;27.51;62.88
27840;BME280;15207;42.182;24.308;2023-08-24T09:15:23;99198.25;;;27.29;58.89
27840;BME280;15207;42.182;24.308;2023-08-24T09:17:48;99194.00;;;27.45;62.12
27840;BME280;15207;42.182;24.308;2023-08-24T09:20:14;99189.81;;;27.55;59.10
27840;BME280;15207;42.182;24.308;2023-08-24T09:22:40;99192.06;;;27.46;59.98
27840;BME280;15207;42.182;24.308;2023-08-24T09:25:09;99187.22;;;27.60;59.54
27840;BME280;15207;42.182;24.308;2023-08-24T09:27:35;99186.06;;;27.92;66.82
27840;BME280;15207;42.182;24.308;2023-08-24T09:30:00;99185.31;;;28.20;70.89
27840;BME280;15207;42.182;24.308;2023-08-24T09:32:30;99178.00;;;28.38;66.98
27840;BME280;15207;42.182;24.308;2023-08-24T09:35:03;99166.28;;;28.43;57.96
27840;BME280;15207;42.182;24.308;2023-08-24T09:37:34;99171.69;;;28.37;56.77
27840;BME280;15207;42.182;24.308;2023-08-24T09:40:06;99172.75;;;28.36;54.67
27840;BME280;15207;42.182;24.308;2023-08-24T09:42:41;99170.44;;;28.57;56.72
27840;BME280;15207;42.182;24.308;2023-08-24T09:45:16;99173.59;;;28.78;58.29
27840;BME280;15207;42.182;24.308;2023-08-24T09:48:00;99166.75;;;28.93;56.31
27840;BME280;15207;42.182;24.308;2023-08-24T09:50:26;99161.00;;;29.11;53.76
27840;BME280;15207;42.182;24.308;2023-08-24T09:52:53;99167.06;;;29.25;53.21
27840;BME280;15207;42.182;24.308;2023-08-24T09:55:20;99160.41;;;29.38;54.01
27840;BME280;15207;42.182;24.308;2023-08-24T09:57:52;99162.34;;;29.55;54.49
27840;BME280;15207;42.182;24.308;2023-08-24T10:00:20;99154.47;;;29.64;49.92
27840;BME280;15207;42.182;24.308;2023-08-24T10:02:51;99149.72;;;29.76;49.94
27840;BME280;15207;42.182;24.308;2023-08-24T10:05:17;99145.78;;;29.89;52.30
27840;BME280;15207;42.182;24.308;2023-08-24T10:07:53;99139.91;;;30.03;51.49
27840;BME280;15207;42.182;24.308;2023-08-24T10:10:20;99134.38;;;30.03;46.51
27840;BME280;15207;42.182;24.308;2023-08-24T10:12:57;99130.44;;;30.16;48.21
27840;BME280;15207;42.182;24.308;2023-08-24T10:15:26;99127.22;;;30.24;49.36
27840;BME280;15207;42.182;24.308;2023-08-24T10:17:52;99123.88;;;30.22;48.92
27840;BME280;15207;42.182;24.308;2023-08-24T10:20:21;99123.09;;;30.27;48.59
27840;BME280;15207;42.182;24.308;2023-08-24T10:22:48;99113.69;;;30.22;46.72
27840;BME280;15207;42.182;24.308;2023-08-24T10:25:15;99114.19;;;30.19;45.61
27840;BME280;15207;42.182;24.308;2023-08-24T10:27:41;99108.56;;;30.31;46.03
27840;BME280;15207;42.182;24.308;2023-08-24T10:30:13;99103.16;;;30.42;44.36
27840;BME280;15207;42.182;24.308;2023-08-24T10:32:40;99094.91;;;30.47;45.00
27840;BME280;15207;42.182;24.308;2023-08-24T10:35:07;99096.94;;;30.57;44.38
27840;BME280;15207;42.182;24.308;2023-08-24T10:37:33;99096.81;;;30.69;44.51
27840;BME280;15207;42.182;24.308;2023-08-24T10:40:01;99098.34;;;30.82;41.39
27840;BME280;15207;42.182;24.308;2023-08-24T10:42:43;99100.88;;;31.16;42.86
27840;BME280;15207;42.182;24.308;2023-08-24T10:45:09;99094.50;;;31.43;42.09
27840;BME280;15207;42.182;24.308;2023-08-24T10:47:44;99088.91;;;31.76;40.70
27840;BME280;15207;42.182;24.308;2023-08-24T10:50:11;99085.53;;;31.69;40.04
27840;BME280;15207;42.182;24.308;2023-08-24T10:52:37;99084.56;;;31.90;41.44
27840;BME280;15207;42.182;24.308;2023-08-24T10:55:21;99079.59;;;31.87;40.59
27840;BME280;15207;42.182;24.308;2023-08-24T10:58:00;99067.16;;;31.95;40.96
27840;BME280;15207;42.182;24.308;2023-08-24T11:00:31;99068.34;;;32.10;38.42
27840;BME280;15207;42.182;24.308;2023-08-24T11:02:57;99070.81;;;32.06;38.54
27840;BME280;15207;42.182;24.308;2023-08-24T11:05:24;99060.56;;;32.06;39.84
27840;BME280;15207;42.182;24.308;2023-08-24T11:08:00;99054.84;;;32.29;39.85
27840;BME280;15207;42.182;24.308;2023-08-24T11:13:16;99052.16;;;32.65;37.15
27840;BME280;15207;42.182;24.308;2023-08-24T11:15:46;99037.50;;;32.59;37.24
27840;BME280;15207;42.182;24.308;2023-08-24T11:20:47;99030.81;;;32.45;36.72
27840;BME280;15207;42.182;24.308;2023-08-24T11:23:14;99028.09;;;32.66;38.16
27840;BME280;15207;42.182;24.308;2023-08-24T11:25:40;99023.38;;;32.77;38.03
27840;BME280;15207;42.182;24.308;2023-08-24T11:28:06;99013.97;;;32.88;37.04
27840;BME280;15207;42.182;24.308;2023-08-24T11:30:32;99015.34;;;32.65;36.84
27840;BME280;15207;42.182;24.308;2023-08-24T11:32:58;99008.69;;;32.81;37.37
27840;BME280;15207;42.182;24.308;2023-08-24T11:35:24;98998.19;;;32.94;36.38
27840;BME280;15207;42.182;24.308;2023-08-24T11:37:55;98999.00;;;33.00;36.96
27840;BME280;15207;42.182;24.308;2023-08-24T11:40:21;99008.19;;;33.00;36.12
27840;BME280;15207;42.182;24.308;2023-08-24T11:42:57;98995.41;;;32.94;36.58
27840;BME280;15207;42.182;24.308;2023-08-24T11:45:23;98983.72;;;33.33;35.69
27840;BME280;15207;42.182;24.308;2023-08-24T11:47:50;98982.56;;;33.66;34.49
27840;BME280;15207;42.182;24.308;2023-08-24T11:50:19;98985.19;;;33.97;34.68
27840;BME280;15207;42.182;24.308;2023-08-24T11:52:44;98979.47;;;34.28;33.84
27840;BME280;15207;42.182;24.308;2023-08-24T11:55:10;98975.28;;;34.30;32.47
27840;BME280;15207;42.182;24.308;2023-08-24T11:57:36;98972.72;;;34.45;31.48
27840;BME280;15207;42.182;24.308;2023-08-24T12:00:06;98968.66;;;34.26;32.24
27840;BME280;15207;42.182;24.308;2023-08-24T12:02:32;98961.66;;;34.39;31.65
27840;BME280;15207;42.182;24.308;2023-08-24T12:04:58;98957.13;;;34.09;32.01
27840;BME280;15207;42.182;24.308;2023-08-24T12:07:24;98964.78;;;34.27;31.76
27840;BME280;15207;42.182;24.308;2023-08-24T12:09:51;98963.03;;;34.42;31.00
27840;BME280;15207;42.182;24.308;2023-08-24T12:12:19;98954.84;;;34.61;31.60
27840;BME280;15207;42.182;24.308;2023-08-24T12:14:49;98938.56;;;34.79;32.13
27840;BME280;15207;42.182;24.308;2023-08-24T12:17:16;98930.47;;;34.82;31.56
27840;BME280;15207;42.182;24.308;2023-08-24T12:19:42;98928.97;;;34.95;32.09
27840;BME280;15207;42.182;24.308;2023-08-24T12:22:19;98918.72;;;34.91;31.62
27840;BME280;15207;42.182;24.308;2023-08-24T12:24:45;98919.25;;;34.93;32.53
27840;BME280;15207;42.182;24.308;2023-08-24T12:27:20;98910.63;;;34.94;32.37
27840;BME280;15207;42.182;24.308;2023-08-24T12:29:47;98907.75;;;35.05;31.20
27840;BME280;15207;42.182;24.308;2023-08-24T12:32:13;98911.28;;;35.11;31.55
27840;BME280;15207;42.182;24.308;2023-08-24T12:34:40;98898.06;;;35.27;31.62
27840;BME280;15207;42.182;24.308;2023-08-24T12:37:06;98896.88;;;35.33;30.98
27840;BME280;15207;42.182;24.308;2023-08-24T12:39:36;98903.03;;;35.30;30.25
27840;BME280;15207;42.182;24.308;2023-08-24T12:42:02;98893.03;;;35.29;30.40
27840;BME280;15207;42.182;24.308;2023-08-24T12:44:28;98901.69;;;35.27;31.49
27840;BME280;15207;42.182;24.308;2023-08-24T12:46:54;98899.84;;;35.17;30.83
27840;BME280;15207;42.182;24.308;2023-08-24T12:49:19;98904.56;;;35.17;31.07
27840;BME280;15207;42.182;24.308;2023-08-24T12:51:45;98902.38;;;35.14;31.24
27840;BME280;15207;42.182;24.308;2023-08-24T12:54:11;98903.19;;;35.14;31.44
27840;BME280;15207;42.182;24.308;2023-08-24T12:56:39;98905.47;;;34.82;31.19
27840;BME280;15207;42.182;24.308;2023-08-24T12:59:05;98904.97;;;34.75;30.96
27840;BME280;15207;42.182;24.308;2023-08-24T13:01:31;98900.47;;;34.79;32.04
27840;BME280;15207;42.182;24.308;2023-08-24T13:03:56;98902.84;;;34.67;30.74